Time;durP1;ratioP1;P1;durP2;ratioP2;P2;SDS_P1;SDS_P2;PMS_P1;PMS_P2;Temp;Humidity;BMP_temperature;BMP_pressure;BME280_temperature;BME280_humidity;BME280_pressure;Samples;Min_cycle;Max_cycle;Signal;HPM_P1;HPM_P2
2021/08/28 00:04:37;;;;;;;2.45;1.25;;;20.30;69.20;;;;;;10335119;28;20066;-48
2021/08/28 00:09:37;;;;;;;2.97;1.30;;;20.30;69.00;;;;;;10346093;28;20503;-49
2021/08/28 00:14:38;;;;;;;2.15;1.50;;;20.30;69.10;;;;;;10332553;28;20168;-48
2021/08/28 00:19:39;;;;;;;2.78;1.40;;;20.30;69.10;;;;;;10336350;28;20113;-51
2021/08/28 00:24:39;;;;;;;2.88;1.20;;;20.30;69.10;;;;;;10333377;28;20031;-52
2021/08/28 00:29:40;;;;;;;3.05;1.60;;;20.30;69.10;;;;;;10333149;28;20126;-51
2021/08/28 00:34:41;;;;;;;2.13;1.38;;;20.30;69.20;;;;;;10332216;28;20066;-51
2021/08/28 00:39:41;;;;;;;3.42;1.40;;;20.30;69.20;;;;;;10332883;28;20471;-50
2021/08/28 00:44:44;;;;;;;3.40;1.50;;;20.30;69.20;;;;;;10331281;28;20057;-52
2021/08/28 00:49:48;;;;;;;2.60;1.38;;;20.30;69.20;;;;;;10332637;28;20065;-50
2021/08/28 00:54:49;;;;;;;3.17;1.40;;;20.30;69.20;;;;;;10331125;28;20076;-49
2021/08/28 00:59:50;;;;;;;2.75;1.58;;;20.30;69.20;;;;;;10332822;28;20089;-52
2021/08/28 01:05:03;;;;;;;2.40;1.42;;;20.30;69.20;;;;;;10332146;28;20026;-51
2021/08/28 01:10:08;;;;;;;4.32;1.60;;;20.30;69.60;;;;;;10332665;28;20031;-50
2021/08/28 01:15:15;;;;;;;4.57;1.40;;;20.30;69.20;;;;;;10330899;28;20034;-49
2021/08/28 01:20:49;;;;;;;5.78;1.67;;;20.20;69.10;;;;;;10334700;28;20038;-49
2021/08/28 01:25:52;;;;;;;2.65;1.67;;;20.30;69.10;;;;;;10345292;28;20100;-49
2021/08/28 01:30:53;;;;;;;3.33;1.30;;;20.20;69.30;;;;;;10371074;28;20038;-49
2021/08/28 01:35:55;;;;;;;4.47;1.42;;;20.20;69.20;;;;;;10372510;28;20030;-51
2021/08/28 01:40:56;;;;;;;3.78;1.75;;;20.30;69.20;;;;;;10371054;28;20045;-51
2021/08/28 01:45:57;;;;;;;2.30;1.40;;;20.30;69.30;;;;;;10376192;28;20026;-49
2021/08/28 01:50:59;;;;;;;2.70;1.40;;;20.20;69.20;;;;;;10380390;28;20052;-52
2021/08/28 01:56:00;;;;;;;3.17;1.63;;;20.20;69.00;;;;;;10379431;28;20022;-51
2021/08/28 02:01:01;;;;;;;2.63;1.30;;;20.30;69.20;;;;;;10379301;28;20057;-51
2021/08/28 02:06:04;;;;;;;2.03;1.40;;;20.20;69.20;;;;;;10379076;28;20030;-50
2021/08/28 02:11:16;;;;;;;2.72;1.40;;;20.20;69.20;;;;;;10361567;28;20085;-49
2021/08/28 02:16:21;;;;;;;3.22;1.75;;;20.20;69.20;;;;;;10337457;28;20045;-50
2021/08/28 02:21:25;;;;;;;3.28;1.52;;;20.20;69.40;;;;;;10339079;28;20101;-50
2021/08/28 02:26:35;;;;;;;3.17;1.42;;;20.20;69.30;;;;;;10337927;28;20398;-50
2021/08/28 02:31:44;;;;;;;2.72;1.77;;;20.20;69.30;;;;;;10336567;28;20480;-52
2021/08/28 02:36:45;;;;;;;;;;;20.20;69.30;;;;;;10338117;28;20027;-51
2021/08/28 02:41:47;;;;;;;2.88;1.45;;;20.20;69.20;;;;;;10335766;28;19944;-50
2021/08/28 02:46:49;;;;;;;2.05;1.25;;;20.20;69.30;;;;;;10335967;28;20109;-49
2021/08/28 02:51:50;;;;;;;2.63;1.40;;;20.20;69.30;;;;;;10335851;28;20053;-51
2021/08/28 02:56:51;;;;;;;2.78;1.83;;;20.20;69.30;;;;;;10335840;28;20050;-49
2021/08/28 03:01:52;;;;;;;3.40;1.63;;;20.20;69.40;;;;;;10335402;28;20383;-49
2021/08/28 03:06:53;;;;;;;2.70;1.58;;;20.20;69.30;;;;;;10336325;28;20125;-48
2021/08/28 03:11:57;;;;;;;1.85;1.40;;;20.20;69.40;;;;;;10334960;28;20040;-48
2021/08/28 03:16:59;;;;;;;3.42;1.65;;;20.20;69.30;;;;;;10336922;28;20390;-49
2021/08/28 03:22:03;;;;;;;3.50;1.55;;;20.10;69.30;;;;;;10336830;28;20034;-50
2021/08/28 03:27:04;;;;;;;3.67;1.58;;;20.20;69.20;;;;;;10334834;28;20471;-52
2021/08/28 03:32:05;;;;;;;2.30;1.65;;;20.10;69.20;;;;;;10335351;28;20489;-52
2021/08/28 03:37:07;;;;;;;3.78;1.60;;;20.10;69.30;;;;;;10335398;28;20050;-49
2021/08/28 03:42:08;;;;;;;2.38;1.38;;;20.10;69.20;;;;;;10317359;28;20081;-51
2021/08/28 03:47:14;;;;;;;3.17;1.40;;;20.10;69.20;;;;;;10334743;28;20022;-49
2021/08/28 03:52:15;;;;;;;4.25;1.63;;;20.10;69.20;;;;;;10334875;28;20084;-51
2021/08/28 03:57:15;;;;;;;2.67;1.67;;;20.20;69.50;;;;;;10333155;28;20100;-49
2021/08/28 04:02:16;;;;;;;2.40;1.52;;;20.10;69.30;;;;;;10334238;28;20027;-49
2021/08/28 04:07:17;;;;;;;3.35;1.50;;;20.10;69.30;;;;;;10333843;28;20157;-52
2021/08/28 04:12:17;;;;;;;3.30;1.85;;;20.10;69.20;;;;;;10333788;28;20041;-51
2021/08/28 04:17:18;;;;;;;3.00;1.55;;;20.10;69.30;;;;;;10336307;28;20034;-48
2021/08/28 04:22:19;;;;;;;2.17;1.35;;;20.10;69.20;;;;;;10333492;28;20100;-50
2021/08/28 04:27:19;;;;;;;3.30;1.80;;;20.10;69.30;;;;;;10333173;28;20022;-50
2021/08/28 04:32:20;;;;;;;3.05;1.52;;;20.10;69.40;;;;;;10333054;28;20101;-49
2021/08/28 04:37:21;;;;;;;3.20;1.90;;;20.10;69.30;;;;;;10331081;28;20117;-52
2021/08/28 04:42:21;;;;;;;3.13;1.58;;;20.10;69.30;;;;;;10329669;28;20121;-50
2021/08/28 04:47:22;;;;;;;4.05;1.67;;;20.10;69.30;;;;;;10332838;28;20066;-49
2021/08/28 04:52:23;;;;;;;1.50;1.10;;;20.10;69.70;;;;;;10333302;28;20030;-48
2021/08/28 04:57:24;;;;;;;2.05;1.20;;;20.10;69.30;;;;;;10332914;28;20042;-49
2021/08/28 05:02:24;;;;;;;2.72;1.90;;;20.10;69.30;;;;;;10332867;28;20026;-49
2021/08/28 05:07:25;;;;;;;2.42;1.40;;;20.10;69.30;;;;;;10332632;28;20113;-49
2021/08/28 05:12:25;;;;;;;2.80;1.55;;;20.10;69.40;;;;;;10332680;28;20117;-50
2021/08/28 05:17:27;;;;;;;3.00;1.67;;;20.10;69.40;;;;;;10334620;28;20399;-49
2021/08/28 05:22:28;;;;;;;2.60;1.50;;;20.10;69.40;;;;;;10340111;28;20029;-49
2021/08/28 05:27:28;;;;;;;4.10;1.83;;;20.10;69.30;;;;;;10340818;28;20442;-48
2021/08/28 05:32:29;;;;;;;1.92;1.23;;;20.10;69.30;;;;;;10339235;28;20038;-48
2021/08/28 05:37:30;;;;;;;2.42;1.73;;;20.10;69.30;;;;;;10339225;28;20065;-49
2021/08/28 05:42:30;;;;;;;3.70;1.83;;;20.10;69.30;;;;;;10339683;28;20089;-48
2021/08/28 05:47:31;;;;;;;3.03;1.67;;;20.10;69.40;;;;;;10340102;28;20149;-49
2021/08/28 05:52:32;;;;;;;3.80;1.85;;;20.00;69.30;;;;;;10340256;28;20069;-48
2021/08/28 05:57:32;;;;;;;3.38;1.70;;;20.10;69.40;;;;;;10339377;28;20030;-49
2021/08/28 06:02:36;;;;;;;3.05;1.73;;;20.00;69.30;;;;;;10339599;28;20058;-48
2021/08/28 06:07:37;;;;;;;3.42;1.88;;;20.10;69.30;;;;;;10365788;28;20497;-48
2021/08/28 06:12:38;;;;;;;2.20;1.48;;;20.10;69.40;;;;;;10379437;28;20025;-51
2021/08/28 06:17:39;;;;;;;2.65;1.38;;;20.00;69.30;;;;;;10373531;28;20041;-51
2021/08/28 06:22:39;;;;;;;3.60;1.60;;;20.00;69.30;;;;;;10338457;28;20058;-51
2021/08/28 06:27:40;;;;;;;2.78;1.45;;;20.10;69.40;;;;;;10338475;28;20117;-48
2021/08/28 06:32:41;;;;;;;2.25;1.23;;;20.00;69.40;;;;;;10348462;28;20513;-49
2021/08/28 06:37:42;;;;;;;2.60;1.55;;;20.00;69.30;;;;;;10338143;28;20030;-49
2021/08/28 06:42:42;;;;;;;3.10;1.67;;;20.10;69.40;;;;;;10337630;28;20057;-48
2021/08/28 06:47:43;;;;;;;3.30;1.70;;;20.00;69.40;;;;;;10336592;28;20042;-50
2021/08/28 06:52:44;;;;;;;2.40;1.60;;;20.00;69.40;;;;;;10337661;28;20066;-51
2021/08/28 06:57:44;;;;;;;3.10;1.80;;;20.00;69.40;;;;;;10337074;28;20052;-52
2021/08/28 07:02:45;;;;;;;2.40;1.50;;;20.00;69.40;;;;;;10337063;28;20070;-50
2021/08/28 07:07:46;;;;;;;3.25;1.85;;;20.00;69.40;;;;;;10337010;28;20034;-48
2021/08/28 07:12:46;;;;;;;2.85;1.80;;;20.00;69.50;;;;;;10336640;28;20101;-49
2021/08/28 07:17:47;;;;;;;4.57;1.73;;;20.00;69.50;;;;;;10338809;28;20061;-48
2021/08/28 07:22:48;;;;;;;3.90;1.77;;;20.00;69.50;;;;;;10336290;28;20060;-48
2021/08/28 07:27:49;;;;;;;4.75;1.77;;;20.00;69.50;;;;;;10336024;28;20034;-49
2021/08/28 07:32:49;;;;;;;3.72;1.92;;;20.00;69.50;;;;;;10336085;28;20470;-52
2021/08/28 07:37:50;;;;;;;2.90;1.92;;;20.00;69.50;;;;;;10335645;28;20065;-48
2021/08/28 07:42:56;;;;;;;3.50;2.17;;;20.00;69.50;;;;;;10334893;28;20038;-49
2021/08/28 07:47:57;;;;;;;3.30;1.63;;;20.00;69.50;;;;;;10334113;28;20044;-49
2021/08/28 07:52:58;;;;;;;4.80;1.88;;;20.00;69.60;;;;;;10335137;28;20033;-49
2021/08/28 07:57:58;;;;;;;4.15;2.08;;;20.00;69.60;;;;;;10334750;28;20026;-49
2021/08/28 08:02:59;;;;;;;3.53;2.00;;;20.00;69.90;;;;;;10335034;28;20057;-48
2021/08/28 08:08:00;;;;;;;3.35;2.15;;;20.00;70.00;;;;;;10339758;28;20030;-51
2021/08/28 08:13:01;;;;;;;3.65;2.20;;;20.00;70.20;;;;;;10342617;28;20038;-51
2021/08/28 08:18:02;;;;;;;3.53;2.10;;;20.00;70.10;;;;;;10335579;28;20110;-49
2021/08/28 08:23:03;;;;;;;5.60;2.95;;;20.10;70.10;;;;;;10333949;28;20031;-48
2021/08/28 08:28:04;;;;;;;2.47;1.60;;;20.00;70.10;;;;;;10332844;28;20491;-52
2021/08/28 08:33:05;;;;;;;4.15;2.03;;;20.00;70.20;;;;;;10333351;28;20108;-49
2021/08/28 08:38:06;;;;;;;3.22;2.03;;;20.10;70.20;;;;;;10333394;28;20042;-47
2021/08/28 08:43:07;;;;;;;3.08;2.10;;;20.10;70.80;;;;;;10333100;28;20654;-48
2021/08/28 08:48:09;;;;;;;3.40;2.08;;;20.10;70.30;;;;;;10332998;28;20109;-49
2021/08/28 08:53:11;;;;;;;2.97;2.20;;;20.10;70.20;;;;;;10332478;28;20113;-49
2021/08/28 08:58:13;;;;;;;3.22;2.10;;;20.10;70.30;;;;;;10331717;28;20391;-50
2021/08/28 09:03:14;;;;;;;4.85;2.17;;;20.10;70.20;;;;;;10331639;28;20110;-48
2021/08/28 09:08:15;;;;;;;4.40;2.50;;;20.10;70.40;;;;;;10332762;28;20088;-50
2021/08/28 09:13:23;;;;;;;3.67;2.45;;;20.10;70.20;;;;;;10333007;28;20080;-49
2021/08/28 09:18:24;;;;;;;3.13;1.85;;;20.20;70.30;;;;;;10334830;28;20034;-48
2021/08/28 09:23:25;;;;;;;3.40;2.53;;;20.20;70.30;;;;;;10332716;28;20038;-51
2021/08/28 09:28:34;;;;;;;4.25;2.28;;;20.20;70.20;;;;;;10331364;28;20038;-49
2021/08/28 09:33:34;;;;;;;3.70;2.75;;;20.20;70.70;;;;;;10360408;28;20029;-51
2021/08/28 09:38:39;;;;;;;2.83;1.88;;;20.20;70.20;;;;;;10371723;28;20040;-49
2021/08/28 09:43:40;;;;;;;4.05;2.10;;;20.20;70.20;;;;;;10372381;28;20153;-48
2021/08/28 09:48:40;;;;;;;3.67;2.00;;;20.30;70.20;;;;;;10372477;28;20548;-48
2021/08/28 09:53:41;;;;;;;3.65;2.97;;;20.30;70.10;;;;;;10372449;28;20458;-49
2021/08/28 09:58:42;;;;;;;2.97;1.70;;;20.30;70.00;;;;;;10372563;28;20045;-49
2021/08/28 10:03:55;;;;;;;4.22;2.65;;;20.40;70.00;;;;;;10372411;28;20033;-48
2021/08/28 10:08:57;;;;;;;2.58;1.98;;;20.40;70.10;;;;;;10366401;28;20503;-50
2021/08/28 10:13:58;;;;;;;3.40;2.22;;;20.40;70.00;;;;;;10363917;28;20038;-49
2021/08/28 10:18:59;;;;;;;4.15;2.40;;;20.40;69.90;;;;;;10341245;28;20475;-47
2021/08/28 10:23:59;;;;;;;3.95;2.30;;;20.40;69.80;;;;;;10337286;28;20113;-48
2021/08/28 10:29:04;;;;;;;3.55;2.67;;;20.40;69.80;;;;;;10338506;28;20027;-48
2021/08/28 10:34:05;;;;;;;2.90;2.20;;;20.50;69.70;;;;;;10338615;28;20129;-49
2021/08/28 10:39:08;;;;;;;3.08;2.33;;;20.50;69.70;;;;;;10336840;28;20038;-49
2021/08/28 10:44:09;;;;;;;3.35;2.13;;;20.50;69.50;;;;;;10336543;28;20069;-48
2021/08/28 10:49:12;;;;;;;3.05;2.05;;;20.50;69.50;;;;;;10337618;28;20038;-49
2021/08/28 10:54:13;;;;;;;4.25;2.55;;;20.40;69.50;;;;;;10337652;28;20018;-51
2021/08/28 10:59:35;;;;;;;3.95;2.60;;;20.40;69.40;;;;;;10337133;28;20407;-50
2021/08/28 11:04:47;;;;;;;3.42;2.17;;;20.40;69.50;;;;;;10367001;28;20040;-49
2021/08/28 11:10:10;;;;;;;3.58;2.38;;;20.40;69.40;;;;;;10376191;28;20061;-51
2021/08/28 11:15:35;;;;;;;7.57;2.80;;;20.40;69.50;;;;;;10377240;28;20386;-51
2021/08/28 11:20:46;;;;;;;3.38;2.53;;;20.40;69.60;;;;;;10347042;28;20046;-49
2021/08/28 11:25:58;;;;;;;4.35;2.58;;;20.40;69.50;;;;;;10336608;28;20034;-49
2021/08/28 11:30:59;;;;;;;3.30;2.33;;;20.40;69.60;;;;;;10334913;28;20042;-48
2021/08/28 11:36:20;;;;;;;3.63;2.25;;;20.40;69.70;;;;;;10336090;28;20030;-49
2021/08/28 11:41:26;;;;;;;6.07;2.80;;;20.40;69.80;;;;;;10335627;28;20042;-49
2021/08/28 11:46:28;;;;;;;5.60;2.17;;;20.40;69.70;;;;;;10334230;28;20029;-49
2021/08/28 11:51:31;;;;;;;4.82;2.80;;;20.40;69.70;;;;;;10335268;28;20049;-49
2021/08/28 11:56:32;;;;;;;3.47;2.30;;;20.40;69.60;;;;;;10333795;28;20052;-47
2021/08/28 12:01:41;;;;;;;3.33;2.25;;;20.40;69.70;;;;;;10334913;28;20061;-49
2021/08/28 12:06:44;;;;;;;2.70;2.08;;;20.40;69.90;;;;;;10333319;28;20022;-49
2021/08/28 12:11:47;;;;;;;3.78;2.40;;;20.50;69.90;;;;;;10334600;28;20034;-49
2021/08/28 12:16:48;;;;;;;2.53;2.28;;;20.60;69.80;;;;;;10334242;28;20034;-49
2021/08/28 12:21:56;;;;;;;3.03;2.55;;;20.60;69.60;;;;;;10336494;28;20030;-48
2021/08/28 12:27:06;;;;;;;4.57;2.80;;;20.60;69.60;;;;;;10334011;28;20030;-49
2021/08/28 12:32:11;;;;;;;4.60;2.63;;;20.60;69.50;;;;;;10333713;28;20027;-48
2021/08/28 12:37:17;;;;;;;3.88;3.03;;;20.60;69.40;;;;;;10333760;28;20038;-50
2021/08/28 12:42:23;;;;;;;3.88;2.45;;;20.50;69.50;;;;;;10333189;28;20054;-49
2021/08/28 12:47:30;;;;;;;3.58;2.35;;;20.50;69.60;;;;;;10333558;28;20030;-50
2021/08/28 12:52:43;;;;;;;3.38;2.30;;;20.50;69.70;;;;;;10333112;28;20023;-49
2021/08/28 12:57:44;;;;;;;3.42;2.30;;;20.60;69.90;;;;;;10333415;28;20080;-49
2021/08/28 13:02:47;;;;;;;2.88;2.17;;;20.60;69.70;;;;;;10331646;28;20023;-49
2021/08/28 13:07:48;;;;;;;4.60;2.75;;;20.60;69.70;;;;;;10332621;28;20145;-49
2021/08/28 13:13:05;;;;;;;4.68;2.67;;;20.60;69.70;;;;;;10332681;28;20039;-47
2021/08/28 13:18:22;;;;;;;3.28;2.63;;;20.60;69.70;;;;;;10335372;28;20035;-49
2021/08/28 13:23:31;;;;;;;2.65;2.05;;;20.60;69.80;;;;;;10332426;28;20030;-49
2021/08/28 13:28:46;;;;;;;3.22;2.15;;;20.60;69.70;;;;;;10332310;28;20085;-50
2021/08/28 13:34:03;;;;;;;3.75;2.47;;;20.60;69.60;;;;;;10332548;28;20113;-49
2021/08/28 13:39:03;;;;;;;2.92;1.85;;;20.50;69.60;;;;;;10332529;28;20034;-49
2021/08/28 13:44:04;;;;;;;3.00;2.38;;;20.50;69.60;;;;;;10340097;28;20411;-49
2021/08/28 13:49:05;;;;;;;3.60;2.58;;;20.50;69.70;;;;;;10340111;28;20038;-49
2021/08/28 13:54:05;;;;;;;4.25;2.30;;;20.50;69.60;;;;;;10339973;28;20116;-49
2021/08/28 13:59:06;;;;;;;3.83;2.47;;;20.50;69.60;;;;;;10339769;28;20027;-51
2021/08/28 14:04:07;;;;;;;2.35;1.83;;;20.50;69.70;;;;;;10339463;28;20425;-48
2021/08/28 14:09:08;;;;;;;3.85;2.22;;;20.60;69.70;;;;;;10339185;28;20069;-48
2021/08/28 14:14:09;;;;;;;3.42;2.20;;;20.60;69.60;;;;;;10338988;28;20455;-49
2021/08/28 14:19:09;;;;;;;2.15;1.80;;;20.60;69.60;;;;;;10341608;28;20069;-53
2021/08/28 14:24:10;;;;;;;2.60;1.73;;;20.60;69.60;;;;;;10338619;28;20146;-49
2021/08/28 14:29:11;;;;;;;3.42;2.10;;;20.60;69.60;;;;;;10338542;28;20101;-49
2021/08/28 14:34:11;;;;;;;3.55;2.40;;;20.60;69.60;;;;;;10338228;28;20120;-49
2021/08/28 14:39:12;;;;;;;3.60;2.10;;;20.60;69.50;;;;;;10338156;28;20504;-48
2021/08/28 14:44:13;;;;;;;3.30;2.30;;;20.60;69.50;;;;;;10337865;28;20042;-50
2021/08/28 14:49:14;;;;;;;3.92;2.17;;;20.60;69.50;;;;;;10338363;28;20062;-49
2021/08/28 14:54:15;;;;;;;3.05;1.90;;;20.60;69.50;;;;;;10336332;28;20034;-49
2021/08/28 14:59:15;;;;;;;2.67;1.95;;;20.50;69.50;;;;;;10337143;28;20549;-49
2021/08/28 15:04:16;;;;;;;3.30;2.10;;;20.50;69.50;;;;;;10337571;28;20421;-49
2021/08/28 15:09:17;;;;;;;3.38;2.30;;;20.50;69.50;;;;;;10337142;28;20116;-50
2021/08/28 15:14:17;;;;;;;3.28;2.00;;;20.60;69.60;;;;;;10336593;28;20495;-49
2021/08/28 15:19:18;;;;;;;3.03;2.33;;;20.50;69.50;;;;;;10339172;28;20036;-49
2021/08/28 15:24:20;;;;;;;6.32;2.40;;;20.50;69.50;;;;;;10342259;28;20057;-49
2021/08/28 15:29:21;;;;;;;2.80;2.10;;;20.50;69.50;;;;;;10344130;28;20044;-48
2021/08/28 15:34:22;;;;;;;2.83;2.03;;;20.50;69.50;;;;;;10336345;28;20412;-49
2021/08/28 15:39:23;;;;;;;3.15;1.80;;;20.50;69.50;;;;;;10334510;28;20156;-49
2021/08/28 15:44:24;;;;;;;3.90;2.08;;;20.50;69.50;;;;;;10335322;28;20049;-48
2021/08/28 15:49:25;;;;;;;4.25;2.40;;;20.50;69.40;;;;;;10335310;28;20034;-48
2021/08/28 15:54:26;;;;;;;3.05;2.13;;;20.50;69.40;;;;;;10335415;28;20069;-48
2021/08/28 15:59:27;;;;;;;3.17;2.03;;;20.50;69.50;;;;;;10335092;28;20030;-50
2021/08/28 16:04:27;;;;;;;2.33;1.77;;;20.50;69.40;;;;;;10334686;28;20115;-48
2021/08/28 16:09:28;;;;;;;3.60;2.58;;;20.50;69.40;;;;;;10334545;28;20026;-49
2021/08/28 16:14:29;;;;;;;3.00;2.10;;;20.50;69.40;;;;;;10334570;28;20046;-51
2021/08/28 16:19:29;;;;;;;3.10;2.17;;;20.50;69.40;;;;;;10344994;28;20113;-49
2021/08/28 16:24:30;;;;;;;3.83;2.58;;;20.50;69.40;;;;;;10334027;28;20128;-48
2021/08/28 16:29:31;;;;;;;3.05;2.20;;;20.50;69.40;;;;;;10332797;28;20117;-48
2021/08/28 16:34:33;;;;;;;2.50;2.03;;;20.50;69.40;;;;;;10333740;28;20068;-48
2021/08/28 16:39:33;;;;;;;4.68;2.33;;;20.40;69.30;;;;;;10333459;28;20039;-49
2021/08/28 16:44:34;;;;;;;3.17;2.13;;;20.50;69.30;;;;;;10333229;28;20050;-49
2021/08/28 16:49:37;;;;;;;3.30;2.42;;;20.50;69.20;;;;;;10333472;28;20038;-49
2021/08/28 16:54:37;;;;;;;3.92;2.28;;;20.50;69.20;;;;;;10333108;28;20030;-51
2021/08/28 16:59:39;;;;;;;4.50;2.58;;;20.50;69.20;;;;;;10332954;28;20027;-49
2021/08/28 17:04:40;;;;;;;2.53;2.22;;;20.50;69.20;;;;;;10333071;28;20049;-49
2021/08/28 17:09:40;;;;;;;4.70;2.40;;;20.50;69.10;;;;;;10332753;28;20064;-49
2021/08/28 17:14:44;;;;;;;3.65;1.92;;;20.40;69.10;;;;;;10331975;28;20114;-50
2021/08/28 17:19:45;;;;;;;3.33;2.13;;;20.40;69.10;;;;;;10334614;28;20035;-49
2021/08/28 17:24:45;;;;;;;3.30;2.42;;;20.40;69.10;;;;;;10332665;28;20022;-50
2021/08/28 17:29:46;;;;;;;2.85;2.40;;;20.40;69.10;;;;;;10332460;28;20035;-51
2021/08/28 17:34:47;;;;;;;3.88;2.10;;;20.40;69.00;;;;;;10332156;28;20038;-49
2021/08/28 17:39:47;;;;;;;3.58;2.28;;;20.40;69.00;;;;;;10332284;28;20041;-51
2021/08/28 17:44:48;;;;;;;3.08;2.20;;;20.40;69.00;;;;;;10331832;28;20086;-50
2021/08/28 17:49:49;;;;;;;2.97;1.85;;;20.50;69.00;;;;;;10332140;28;20054;-50
2021/08/28 17:54:49;;;;;;;3.20;2.30;;;20.40;69.00;;;;;;10331039;28;20069;-48
2021/08/28 17:59:50;;;;;;;3.25;2.45;;;20.40;69.00;;;;;;10331714;28;20472;-52
2021/08/28 18:04:51;;;;;;;3.05;2.20;;;20.40;68.90;;;;;;10331812;28;20526;-48
2021/08/28 18:09:51;;;;;;;4.07;2.10;;;20.40;68.80;;;;;;10331749;28;20501;-49
2021/08/28 18:14:52;;;;;;;3.28;1.85;;;20.40;68.90;;;;;;10331510;28;20135;-49
2021/08/28 18:19:53;;;;;;;3.03;1.90;;;20.40;68.80;;;;;;10333205;28;20027;-49
2021/08/28 18:24:54;;;;;;;3.35;2.60;;;20.40;68.80;;;;;;10330406;28;20027;-49
2021/08/28 18:29:55;;;;;;;4.90;2.20;;;20.40;68.80;;;;;;10338839;28;20042;-48
2021/08/28 18:34:56;;;;;;;3.10;1.83;;;20.40;68.80;;;;;;10338180;28;20110;-48
2021/08/28 18:39:56;;;;;;;3.72;2.45;;;20.40;68.80;;;;;;10338478;28;20475;-50
2021/08/28 18:44:57;;;;;;;3.00;2.20;;;20.40;68.70;;;;;;10350546;28;20069;-50
2021/08/28 18:49:57;;;;;;;2.75;1.77;;;20.40;68.80;;;;;;10337962;28;20064;-50
2021/08/28 18:54:58;;;;;;;3.80;2.35;;;20.40;68.80;;;;;;10337561;28;20062;-48
2021/08/28 18:59:59;;;;;;;2.58;1.85;;;20.40;68.70;;;;;;10337645;28;20085;-48
2021/08/28 19:04:59;;;;;;;3.42;2.20;;;20.40;68.70;;;;;;10335624;28;20022;-51
2021/08/28 19:10:00;;;;;;;4.10;1.98;;;20.40;68.70;;;;;;10336654;28;20056;-53
2021/08/28 19:15:01;;;;;;;4.20;2.42;;;20.40;68.70;;;;;;10336305;28;20113;-50
2021/08/28 19:20:03;;;;;;;3.95;2.47;;;20.40;68.70;;;;;;10338447;28;20026;-48
2021/08/28 19:25:04;;;;;;;3.92;2.33;;;20.40;68.70;;;;;;10334606;28;20026;-50
2021/08/28 19:30:07;;;;;;;4.70;2.60;;;20.40;68.70;;;;;;10335643;28;20027;-53
2021/08/28 19:35:08;;;;;;;2.30;1.42;;;20.40;68.70;;;;;;10335625;28;20031;-49
2021/08/28 19:40:09;;;;;;;2.55;2.03;;;20.40;68.70;;;;;;10334395;28;20042;-48
2021/08/28 19:45:10;;;;;;;3.55;1.77;;;20.40;68.70;;;;;;10335045;28;20047;-50
2021/08/28 19:50:11;;;;;;;2.88;2.05;;;20.40;68.70;;;;;;10317491;28;20034;-49
2021/08/28 19:55:12;;;;;;;2.50;1.95;;;20.40;68.80;;;;;;10334713;28;20427;-51
2021/08/28 20:00:13;;;;;;;3.13;1.80;;;20.40;68.80;;;;;;10334486;28;20169;-51
2021/08/28 20:05:14;;;;;;;2.95;2.00;;;20.40;68.80;;;;;;10334404;28;20033;-48
2021/08/28 20:10:15;;;;;;;4.07;2.28;;;20.40;68.80;;;;;;10334217;28;20471;-48
2021/08/28 20:15:16;;;;;;;2.85;2.17;;;20.40;68.80;;;;;;10333962;28;20030;-49
2021/08/28 20:20:17;;;;;;;4.85;2.55;;;20.40;68.80;;;;;;10334330;28;20037;-50
2021/08/28 20:25:17;;;;;;;3.03;2.10;;;20.40;68.80;;;;;;10332368;28;20026;-50
2021/08/28 20:30:18;;;;;;;3.30;1.83;;;20.40;68.90;;;;;;10333400;28;20030;-49
2021/08/28 20:35:19;;;;;;;2.20;1.75;;;20.40;68.80;;;;;;10333238;28;20394;-49
2021/08/28 20:40:20;;;;;;;2.83;2.30;;;20.40;68.80;;;;;;10333059;28;20426;-49
2021/08/28 20:45:21;;;;;;;3.85;2.45;;;20.40;68.90;;;;;;10332806;28;20419;-49
2021/08/28 20:50:22;;;;;;;3.22;1.90;;;20.40;69.00;;;;;;10331919;28;20039;-50
2021/08/28 20:55:23;;;;;;;3.08;2.00;;;20.40;69.10;;;;;;10332752;28;20089;-50
2021/08/28 21:00:24;;;;;;;2.55;1.92;;;20.40;69.20;;;;;;10332367;28;20027;-47
2021/08/28 21:05:25;;;;;;;3.00;2.10;;;20.30;69.10;;;;;;10332440;28;20403;-49
2021/08/28 21:10:25;;;;;;;3.33;2.15;;;20.40;69.10;;;;;;10332260;28;20088;-50
2021/08/28 21:15:26;;;;;;;3.58;2.35;;;20.40;69.20;;;;;;10330939;28;20061;-49
2021/08/28 21:20:27;;;;;;;3.42;1.98;;;20.30;69.10;;;;;;10334181;28;20479;-48
2021/08/28 21:25:28;;;;;;;2.90;1.67;;;20.30;69.70;;;;;;10332334;28;20105;-49
2021/08/28 21:30:28;;;;;;;3.05;1.70;;;20.30;69.10;;;;;;10332510;28;20030;-52
2021/08/28 21:35:29;;;;;;;3.20;2.00;;;20.30;69.10;;;;;;10331766;28;20395;-49
2021/08/28 21:40:31;;;;;;;3.42;1.67;;;20.30;69.30;;;;;;10331637;28;20534;-48
2021/08/28 21:45:32;;;;;;;3.67;2.25;;;20.30;69.30;;;;;;10331456;28;20046;-50
2021/08/28 21:50:33;;;;;;;3.47;2.05;;;20.30;69.30;;;;;;10331552;28;20113;-49
2021/08/28 21:55:34;;;;;;;3.35;2.05;;;20.30;69.30;;;;;;10331504;28;20039;-49
2021/08/28 22:00:46;;;;;;;4.55;2.30;;;20.30;69.30;;;;;;10332608;28;20065;-48
2021/08/28 22:05:47;;;;;;;3.47;2.10;;;20.30;69.00;;;;;;10337885;28;20073;-49
2021/08/28 22:10:48;;;;;;;3.88;2.35;;;20.30;69.10;;;;;;10338798;28;20652;-49
2021/08/28 22:15:49;;;;;;;3.47;1.90;;;20.30;69.10;;;;;;10338611;28;20030;-49
2021/08/28 22:20:50;;;;;;;3.05;2.50;;;20.30;69.20;;;;;;10340533;28;20027;-49
2021/08/28 22:25:51;;;;;;;2.75;1.77;;;20.30;69.20;;;;;;10338360;28;20109;-50
2021/08/28 22:30:51;;;;;;;3.30;2.05;;;20.30;69.20;;;;;;10338191;28;20027;-49
2021/08/28 22:35:53;;;;;;;3.05;2.00;;;20.30;69.20;;;;;;10337956;28;20088;-49
2021/08/28 22:40:53;;;;;;;3.88;2.13;;;20.30;69.20;;;;;;10337469;28;20030;-48
2021/08/28 22:45:54;;;;;;;2.83;2.10;;;20.30;69.20;;;;;;10349488;28;20052;-52
2021/08/28 22:50:55;;;;;;;2.10;1.55;;;20.30;69.10;;;;;;10337750;28;20117;-49
2021/08/28 22:55:55;;;;;;;6.07;2.20;;;20.20;69.10;;;;;;10337749;28;20034;-48
2021/08/28 23:00:56;;;;;;;2.38;1.70;;;20.30;69.10;;;;;;10336867;28;20058;-49
2021/08/28 23:05:57;;;;;;;3.50;1.73;;;20.20;69.10;;;;;;10364543;28;20386;-48
2021/08/28 23:10:58;;;;;;;3.13;1.88;;;20.20;69.30;;;;;;10377115;28;20052;-50
2021/08/28 23:15:58;;;;;;;3.15;2.03;;;20.30;69.30;;;;;;10375870;28;20054;-49
2021/08/28 23:20:59;;;;;;;3.00;1.98;;;20.20;69.30;;;;;;10343775;28;20428;-48
2021/08/28 23:26:00;;;;;;;2.20;1.65;;;20.20;69.20;;;;;;10335895;28;20479;-51
2021/08/28 23:31:01;;;;;;;2.92;2.13;;;20.20;69.20;;;;;;10336355;28;20062;-49
2021/08/28 23:36:01;;;;;;;3.28;1.98;;;20.20;69.20;;;;;;10336002;28;20026;-50
2021/08/28 23:41:02;;;;;;;3.38;2.13;;;20.20;69.10;;;;;;10335108;28;20136;-49
2021/08/28 23:46:03;;;;;;;3.25;2.10;;;20.20;69.30;;;;;;10335065;28;20022;-49
2021/08/28 23:51:03;;;;;;;3.25;1.75;;;20.20;69.30;;;;;;10334966;28;20513;-52
2021/08/28 23:56:05;;;;;;;2.53;1.63;;;20.20;69.30;;;;;;10335354;28;20479;-51
